EJU49WH LEBL-LSGG
Flight info
| Callsign | EJU49WH |
|---|---|
| Flight time | 1h 8m |
| Altitude | 36000 |
| Route | DALIN DCT PIVUS DCT DIBER DCT ADITA DCT MAXIR DCT LUSOL DCT BODRU DCT OKTET DCT IRMAR DCT KINES |
| Aircraft | A319/M-SDE3FGHIRWY/LB1 |
Departure
| Time | 2026-05-04 13:00 |
|---|---|
| Airport | Josep Tarradellas Barcelona-El Prat Airport (LEBL) |
Arrival
| Time | 2026-05-04 14:08 |
|---|---|
| Airport | Geneva International Airport (LSGG) |
| Time | Latitude | Longitude | Altitude | Speed | Heading |
|---|---|---|---|---|---|
| 2026-05-04 12:12 | 41.30331 | 2.08296 | 21 ft | 0 kts | 354° |
| 2026-05-04 12:48 | 41.30328 | 2.08296 | 21 ft | 3 kts | 354° |
| 2026-05-04 12:48 | 41.30302 | 2.08299 | 20 ft | 3 kts | 354° |
| 2026-05-04 12:48 | 41.30280 | 2.08301 | 20 ft | 4 kts | 3° |
| 2026-05-04 12:49 | 41.30255 | 2.08294 | 19 ft | 4 kts | 33° |
| 2026-05-04 12:49 | 41.30239 | 2.08271 | 20 ft | 4 kts | 66° |
| 2026-05-04 12:49 | 41.30229 | 2.08241 | 20 ft | 1 kts | 66° |
| 2026-05-04 12:49 | 41.30229 | 2.08240 | 20 ft | 1 kts | 66° |
| 2026-05-04 12:53 | 41.30233 | 2.08252 | 21 ft | 3 kts | 65° |
| 2026-05-04 12:53 | 41.30247 | 2.08291 | 19 ft | 6 kts | 65° |
| 2026-05-04 12:53 | 41.30271 | 2.08358 | 20 ft | 9 kts | 64° |
| 2026-05-04 12:53 | 41.30281 | 2.08437 | 19 ft | 8 kts | 118° |
| 2026-05-04 12:54 | 41.30251 | 2.08496 | 18 ft | 8 kts | 83° |
| 2026-05-04 12:54 | 41.30272 | 2.08557 | 20 ft | 7 kts | 65° |
| 2026-05-04 12:54 | 41.30290 | 2.08608 | 19 ft | 6 kts | 64° |
| 2026-05-04 12:54 | 41.30312 | 2.08672 | 17 ft | 11 kts | 66° |
| 2026-05-04 12:55 | 41.30358 | 2.08809 | 20 ft | 17 kts | 65° |
| 2026-05-04 12:55 | 41.30405 | 2.08945 | 20 ft | 15 kts | 65° |
| 2026-05-04 12:55 | 41.30456 | 2.09002 | 18 ft | 8 kts | 12° |
| 2026-05-04 12:55 | 41.30507 | 2.09013 | 18 ft | 8 kts | 10° |
| 2026-05-04 12:56 | 41.30578 | 2.09040 | 18 ft | 12 kts | 18° |
| 2026-05-04 12:56 | 41.30650 | 2.09073 | 20 ft | 11 kts | 19° |
| 2026-05-04 12:56 | 41.30729 | 2.09109 | 20 ft | 13 kts | 19° |
| 2026-05-04 12:56 | 41.30817 | 2.09149 | 22 ft | 14 kts | 18° |
| 2026-05-04 12:57 | 41.30876 | 2.09229 | 22 ft | 10 kts | 67° |
| 2026-05-04 12:57 | 41.30900 | 2.09300 | 20 ft | 7 kts | 66° |
| 2026-05-04 12:57 | 41.30918 | 2.09354 | 20 ft | 5 kts | 65° |
| 2026-05-04 12:57 | 41.30929 | 2.09385 | 21 ft | 2 kts | 66° |
| 2026-05-04 12:58 | 41.30930 | 2.09391 | 21 ft | 0 kts | 66° |
| 2026-05-04 12:58 | 41.30931 | 2.09394 | 21 ft | 1 kts | 70° |
| 2026-05-04 12:58 | 41.30930 | 2.09420 | 22 ft | 3 kts | 104° |
| 2026-05-04 12:58 | 41.30917 | 2.09453 | 23 ft | 5 kts | 130° |
| 2026-05-04 12:59 | 41.30890 | 2.09448 | 22 ft | 0 kts | 198° |
| 2026-05-04 12:59 | 41.30862 | 2.09436 | 22 ft | 23 kts | 198° |
| 2026-05-04 12:59 | 41.30458 | 2.09249 | 21 ft | 97 kts | 199° |
| 2026-05-04 13:00 | 41.29622 | 2.08870 | 59 ft | 149 kts | 199° |
| 2026-05-04 13:00 | 41.28646 | 2.08436 | 737 ft | 148 kts | 196° |
| 2026-05-04 13:00 | 41.27658 | 2.08019 | 1406 ft | 152 kts | 195° |
| 2026-05-04 13:00 | 41.26529 | 2.07744 | 1752 ft | 176 kts | 187° |
| 2026-05-04 13:01 | 41.25245 | 2.07506 | 2130 ft | 197 kts | 189° |
| 2026-05-04 13:01 | 41.23867 | 2.07195 | 2756 ft | 205 kts | 191° |
| 2026-05-04 13:01 | 41.22442 | 2.06854 | 3434 ft | 209 kts | 192° |
| 2026-05-04 13:01 | 41.21008 | 2.06509 | 4189 ft | 210 kts | 192° |
| 2026-05-04 13:02 | 41.19561 | 2.06158 | 4926 ft | 212 kts | 191° |
| 2026-05-04 13:02 | 41.18106 | 2.05803 | 5669 ft | 213 kts | 191° |
| 2026-05-04 13:02 | 41.16640 | 2.05524 | 6279 ft | 223 kts | 188° |
| 2026-05-04 13:02 | 41.15034 | 2.05386 | 6887 ft | 236 kts | 183° |
| 2026-05-04 13:03 | 41.13380 | 2.05337 | 7788 ft | 239 kts | 182° |
| 2026-05-04 13:03 | 41.11704 | 2.05306 | 8762 ft | 242 kts | 182° |
| 2026-05-04 13:03 | 41.10013 | 2.05266 | 9711 ft | 245 kts | 183° |
| 2026-05-04 13:03 | 41.08302 | 2.05210 | 10581 ft | 247 kts | 184° |
| 2026-05-04 13:04 | 41.06577 | 2.05142 | 11371 ft | 253 kts | 184° |
| 2026-05-04 13:04 | 41.04738 | 2.05059 | 11707 ft | 276 kts | 184° |
| 2026-05-04 13:04 | 41.02731 | 2.04972 | 12007 ft | 301 kts | 182° |
| 2026-05-04 13:04 | 41.00608 | 2.05564 | 12298 ft | 329 kts | 156° |
| 2026-05-04 13:05 | 40.98849 | 2.07603 | 12939 ft | 349 kts | 128° |
| 2026-05-04 13:05 | 40.98056 | 2.09483 | 13425 ft | 357 kts | 119° |
| 2026-05-04 13:05 | 40.97109 | 2.12557 | 14130 ft | 364 kts | 113° |
| 2026-05-04 13:05 | 40.96327 | 2.15781 | 14892 ft | 371 kts | 111° |
| 2026-05-04 13:06 | 40.95608 | 2.19081 | 15558 ft | 377 kts | 108° |
| 2026-05-04 13:06 | 40.95267 | 2.22564 | 16168 ft | 388 kts | 94° |
| 2026-05-04 13:06 | 40.95490 | 2.26161 | 16810 ft | 397 kts | 81° |
| 2026-05-04 13:06 | 40.96269 | 2.29686 | 17442 ft | 404 kts | 68° |
| 2026-05-04 13:07 | 40.97657 | 2.32942 | 18065 ft | 409 kts | 52° |
| 2026-05-04 13:07 | 40.99580 | 2.35736 | 18635 ft | 413 kts | 44° |
| 2026-05-04 13:07 | 41.01618 | 2.38444 | 19191 ft | 417 kts | 44° |
| 2026-05-04 13:07 | 41.03679 | 2.41180 | 19753 ft | 421 kts | 44° |
| 2026-05-04 13:08 | 41.05761 | 2.43949 | 20307 ft | 426 kts | 44° |
| 2026-05-04 13:08 | 41.07864 | 2.46754 | 20865 ft | 430 kts | 44° |
| 2026-05-04 13:08 | 41.09984 | 2.49597 | 21398 ft | 435 kts | 44° |
| 2026-05-04 13:08 | 41.12122 | 2.52472 | 21941 ft | 440 kts | 44° |
| 2026-05-04 13:09 | 41.14261 | 2.55344 | 22467 ft | 444 kts | 44° |
| 2026-05-04 13:09 | 41.16449 | 2.58284 | 23001 ft | 448 kts | 44° |
| 2026-05-04 13:09 | 41.18652 | 2.61246 | 23516 ft | 452 kts | 44° |
| 2026-05-04 13:09 | 41.20869 | 2.64228 | 23943 ft | 455 kts | 44° |
| 2026-05-04 13:10 | 41.23111 | 2.67245 | 24374 ft | 459 kts | 44° |
| 2026-05-04 13:10 | 41.25335 | 2.70242 | 24789 ft | 462 kts | 44° |
| 2026-05-04 13:10 | 41.27605 | 2.73301 | 25198 ft | 465 kts | 44° |
| 2026-05-04 13:10 | 41.29888 | 2.76378 | 25599 ft | 468 kts | 44° |
| 2026-05-04 13:11 | 41.32186 | 2.79480 | 25995 ft | 472 kts | 45° |
| 2026-05-04 13:11 | 41.34506 | 2.82618 | 26380 ft | 475 kts | 45° |
| 2026-05-04 13:11 | 41.36803 | 2.85737 | 26754 ft | 479 kts | 45° |
| 2026-05-04 13:11 | 41.39149 | 2.88926 | 27137 ft | 482 kts | 45° |
| 2026-05-04 13:12 | 41.41512 | 2.92144 | 27514 ft | 486 kts | 45° |
| 2026-05-04 13:12 | 41.43890 | 2.95382 | 27882 ft | 490 kts | 45° |
| 2026-05-04 13:12 | 41.46252 | 2.98597 | 28236 ft | 493 kts | 45° |
| 2026-05-04 13:12 | 41.48668 | 3.01889 | 28592 ft | 497 kts | 45° |
| 2026-05-04 13:13 | 41.51098 | 3.05201 | 28943 ft | 500 kts | 45° |
| 2026-05-04 13:13 | 41.53543 | 3.08541 | 29279 ft | 504 kts | 45° |
| 2026-05-04 13:13 | 41.56003 | 3.11903 | 29618 ft | 507 kts | 45° |
| 2026-05-04 13:13 | 41.58451 | 3.15255 | 29942 ft | 510 kts | 45° |
| 2026-05-04 13:14 | 41.60936 | 3.18666 | 30225 ft | 513 kts | 45° |
| 2026-05-04 13:14 | 41.63440 | 3.22107 | 30512 ft | 516 kts | 45° |
| 2026-05-04 13:14 | 41.65954 | 3.25566 | 30785 ft | 518 kts | 45° |
| 2026-05-04 13:14 | 41.68485 | 3.29044 | 31056 ft | 521 kts | 45° |
| 2026-05-04 13:15 | 41.70943 | 3.32532 | 31319 ft | 523 kts | 50° |
| 2026-05-04 13:15 | 41.73139 | 3.36430 | 31695 ft | 522 kts | 58° |
| 2026-05-04 13:15 | 41.74962 | 3.40643 | 32075 ft | 520 kts | 66° |
| 2026-05-04 13:15 | 41.76465 | 3.45064 | 32449 ft | 519 kts | 69° |
| 2026-05-04 13:16 | 41.77935 | 3.49499 | 32814 ft | 520 kts | 68° |
| 2026-05-04 13:16 | 41.79388 | 3.53879 | 33178 ft | 520 kts | 68° |
| 2026-05-04 13:16 | 41.80863 | 3.58324 | 33549 ft | 520 kts | 68° |
| 2026-05-04 13:16 | 41.82336 | 3.62761 | 33919 ft | 521 kts | 68° |
| 2026-05-04 13:17 | 41.83810 | 3.67208 | 34251 ft | 521 kts | 68° |
| 2026-05-04 13:17 | 41.85277 | 3.71648 | 34606 ft | 520 kts | 68° |
| 2026-05-04 13:17 | 41.86736 | 3.76082 | 34965 ft | 519 kts | 68° |
| 2026-05-04 13:17 | 41.88190 | 3.80510 | 35319 ft | 518 kts | 68° |
| 2026-05-04 13:18 | 41.89639 | 3.84929 | 35655 ft | 517 kts | 68° |
| 2026-05-04 13:18 | 41.91070 | 3.89300 | 35899 ft | 517 kts | 68° |
| 2026-05-04 13:18 | 41.92515 | 3.93717 | 35957 ft | 514 kts | 68° |
| 2026-05-04 13:19 | 41.95382 | 4.02491 | 35954 ft | 512 kts | 68° |
| 2026-05-04 13:19 | 41.98235 | 4.11275 | 35957 ft | 512 kts | 68° |
| 2026-05-04 13:20 | 42.01076 | 4.20061 | 35959 ft | 512 kts | 68° |
| 2026-05-04 13:20 | 42.03912 | 4.28857 | 35962 ft | 512 kts | 68° |
| 2026-05-04 13:21 | 42.06845 | 4.37540 | 35970 ft | 513 kts | 61° |
| 2026-05-04 13:21 | 42.11086 | 4.45166 | 35968 ft | 511 kts | 43° |
| 2026-05-04 13:22 | 42.16354 | 4.51554 | 35969 ft | 509 kts | 39° |
| 2026-05-04 13:22 | 42.21649 | 4.57922 | 35978 ft | 509 kts | 39° |
| 2026-05-04 13:23 | 42.26931 | 4.64317 | 35981 ft | 509 kts | 39° |
| 2026-05-04 13:23 | 42.32208 | 4.70713 | 35984 ft | 510 kts | 39° |
| 2026-05-04 13:24 | 42.37486 | 4.77115 | 35990 ft | 509 kts | 39° |
| 2026-05-04 13:24 | 42.42731 | 4.83488 | 35994 ft | 509 kts | 39° |
| 2026-05-04 13:25 | 42.50638 | 4.93124 | 36000 ft | 509 kts | 39° |
| 2026-05-04 13:25 | 42.55868 | 4.99536 | 36004 ft | 508 kts | 39° |
| 2026-05-04 13:26 | 42.61127 | 5.05995 | 36012 ft | 508 kts | 39° |
| 2026-05-04 13:26 | 42.66371 | 5.12445 | 36020 ft | 508 kts | 39° |
| 2026-05-04 13:27 | 42.71579 | 5.18857 | 36016 ft | 508 kts | 39° |
| 2026-05-04 13:27 | 42.76825 | 5.25328 | 36027 ft | 507 kts | 39° |
| 2026-05-04 13:28 | 42.82045 | 5.31795 | 36025 ft | 507 kts | 39° |
| 2026-05-04 13:28 | 42.87263 | 5.38274 | 36034 ft | 507 kts | 39° |
| 2026-05-04 13:29 | 42.92471 | 5.44750 | 36032 ft | 506 kts | 39° |
| 2026-05-04 13:29 | 42.97650 | 5.51213 | 36034 ft | 506 kts | 39° |
| 2026-05-04 13:30 | 43.02849 | 5.57720 | 36033 ft | 506 kts | 39° |
| 2026-05-04 13:30 | 43.08033 | 5.64217 | 36043 ft | 505 kts | 40° |
| 2026-05-04 13:31 | 43.13185 | 5.70691 | 36046 ft | 505 kts | 40° |
| 2026-05-04 13:31 | 43.18357 | 5.77198 | 36051 ft | 504 kts | 40° |
| 2026-05-04 13:32 | 43.23516 | 5.83703 | 36055 ft | 504 kts | 40° |
| 2026-05-04 13:32 | 43.28670 | 5.90221 | 36055 ft | 503 kts | 40° |
| 2026-05-04 13:33 | 43.33810 | 5.96739 | 36057 ft | 503 kts | 38° |
| 2026-05-04 13:33 | 43.39612 | 6.01985 | 36052 ft | 492 kts | 19° |
| 2026-05-04 13:34 | 43.46048 | 6.04631 | 36059 ft | 476 kts | 1° |
| 2026-05-04 13:34 | 43.52604 | 6.05363 | 36056 ft | 472 kts | 357° |
| 2026-05-04 13:35 | 43.62395 | 6.06344 | 36052 ft | 472 kts | 357° |
| 2026-05-04 13:36 | 43.68949 | 6.07008 | 36056 ft | 472 kts | 357° |
| 2026-05-04 13:36 | 43.75504 | 6.07905 | 36054 ft | 478 kts | 5° |
| 2026-05-04 13:37 | 43.81845 | 6.11019 | 36062 ft | 490 kts | 22° |
| 2026-05-04 13:37 | 43.87965 | 6.15214 | 36066 ft | 490 kts | 21° |
| 2026-05-04 13:38 | 43.94074 | 6.19381 | 36066 ft | 490 kts | 21° |
| 2026-05-04 13:38 | 44.00194 | 6.23557 | 36072 ft | 489 kts | 21° |
| 2026-05-04 13:39 | 44.06300 | 6.27735 | 36073 ft | 489 kts | 22° |
| 2026-05-04 13:39 | 44.12398 | 6.31928 | 36076 ft | 488 kts | 22° |
| 2026-05-04 13:40 | 44.18480 | 6.36121 | 36080 ft | 488 kts | 22° |
| 2026-05-04 13:40 | 44.24563 | 6.40325 | 36085 ft | 488 kts | 22° |
| 2026-05-04 13:41 | 44.30645 | 6.44525 | 36093 ft | 488 kts | 22° |
| 2026-05-04 13:41 | 44.36715 | 6.48734 | 36105 ft | 487 kts | 22° |
| 2026-05-04 13:42 | 44.45817 | 6.55073 | 36108 ft | 486 kts | 22° |
| 2026-05-04 13:42 | 44.51863 | 6.59289 | 36124 ft | 486 kts | 22° |
| 2026-05-04 13:43 | 44.57908 | 6.63514 | 36129 ft | 485 kts | 22° |
| 2026-05-04 13:43 | 44.63943 | 6.67743 | 36145 ft | 484 kts | 22° |
| 2026-05-04 13:44 | 44.69974 | 6.71977 | 36154 ft | 484 kts | 23° |
| 2026-05-04 13:44 | 44.75970 | 6.76132 | 36154 ft | 481 kts | 19° |
| 2026-05-04 13:45 | 44.82355 | 6.78486 | 36165 ft | 470 kts | 1° |
| 2026-05-04 13:45 | 44.88802 | 6.78454 | 36166 ft | 462 kts | 352° |
| 2026-05-04 13:46 | 44.95225 | 6.78028 | 36160 ft | 462 kts | 352° |
| 2026-05-04 13:46 | 45.01644 | 6.77615 | 36154 ft | 462 kts | 352° |
| 2026-05-04 13:47 | 45.08079 | 6.77197 | 36160 ft | 463 kts | 352° |
| 2026-05-04 13:47 | 45.14516 | 6.76764 | 35912 ft | 463 kts | 352° |
| 2026-05-04 13:48 | 45.16656 | 6.76622 | 35744 ft | 463 kts | 352° |
| 2026-05-04 13:48 | 45.19870 | 6.76412 | 35272 ft | 464 kts | 353° |
| 2026-05-04 13:48 | 45.23130 | 6.76195 | 34271 ft | 472 kts | 353° |
| 2026-05-04 13:48 | 45.26427 | 6.75969 | 33249 ft | 477 kts | 353° |
| 2026-05-04 13:49 | 45.29755 | 6.75740 | 32282 ft | 481 kts | 354° |
| 2026-05-04 13:49 | 45.33062 | 6.75451 | 31824 ft | 470 kts | 350° |
| 2026-05-04 13:49 | 45.36261 | 6.74689 | 31210 ft | 464 kts | 346° |
| 2026-05-04 13:49 | 45.39417 | 6.73831 | 30616 ft | 459 kts | 346° |
| 2026-05-04 13:50 | 45.42548 | 6.72980 | 30018 ft | 456 kts | 347° |
| 2026-05-04 13:50 | 45.45647 | 6.72135 | 29413 ft | 451 kts | 347° |
| 2026-05-04 13:50 | 45.48711 | 6.71299 | 28859 ft | 445 kts | 347° |
| 2026-05-04 13:50 | 45.51737 | 6.70474 | 28309 ft | 441 kts | 347° |
| 2026-05-04 13:51 | 45.54735 | 6.69667 | 27752 ft | 436 kts | 347° |
| 2026-05-04 13:51 | 45.57701 | 6.68890 | 27208 ft | 432 kts | 347° |
| 2026-05-04 13:51 | 45.60645 | 6.68133 | 26673 ft | 429 kts | 347° |
| 2026-05-04 13:51 | 45.63573 | 6.67384 | 26148 ft | 425 kts | 347° |
| 2026-05-04 13:52 | 45.69366 | 6.65898 | 25126 ft | 420 kts | 347° |
| 2026-05-04 13:52 | 45.72235 | 6.65158 | 24633 ft | 419 kts | 347° |
| 2026-05-04 13:52 | 45.75099 | 6.64417 | 24141 ft | 417 kts | 347° |
| 2026-05-04 13:53 | 45.77937 | 6.63667 | 23678 ft | 414 kts | 347° |
| 2026-05-04 13:53 | 45.80768 | 6.62902 | 23137 ft | 413 kts | 347° |
| 2026-05-04 13:53 | 45.83580 | 6.62137 | 22673 ft | 410 kts | 346° |
| 2026-05-04 13:54 | 45.89146 | 6.60618 | 21736 ft | 404 kts | 346° |
| 2026-05-04 13:54 | 45.91896 | 6.59866 | 21249 ft | 401 kts | 346° |
| 2026-05-04 13:54 | 45.97343 | 6.58378 | 20301 ft | 396 kts | 346° |
| 2026-05-04 13:55 | 46.00043 | 6.57637 | 19807 ft | 394 kts | 345° |
| 2026-05-04 13:55 | 46.04947 | 6.54604 | 18844 ft | 379 kts | 320° |
| 2026-05-04 13:55 | 46.06912 | 6.52149 | 18353 ft | 370 kts | 308° |
| 2026-05-04 13:56 | 46.08478 | 6.49258 | 17794 ft | 364 kts | 299° |
| 2026-05-04 13:56 | 46.09896 | 6.46241 | 17322 ft | 362 kts | 299° |
| 2026-05-04 13:56 | 46.12718 | 6.40269 | 16399 ft | 357 kts | 300° |
| 2026-05-04 13:57 | 46.14109 | 6.37324 | 15944 ft | 354 kts | 300° |
| 2026-05-04 13:57 | 46.15486 | 6.34408 | 15491 ft | 351 kts | 300° |
| 2026-05-04 13:58 | 46.21761 | 6.30269 | 14909 ft | 345 kts | 10° |
| 2026-05-04 13:58 | 46.25628 | 6.33958 | 14084 ft | 337 kts | 47° |
| 2026-05-04 13:58 | 46.27234 | 6.36356 | 13646 ft | 333 kts | 47° |
| 2026-05-04 13:59 | 46.28828 | 6.38737 | 13171 ft | 327 kts | 47° |
| 2026-05-04 13:59 | 46.30406 | 6.41081 | 12607 ft | 323 kts | 46° |
| 2026-05-04 13:59 | 46.33526 | 6.45701 | 11827 ft | 319 kts | 46° |
| 2026-05-04 14:00 | 46.35076 | 6.47995 | 11546 ft | 317 kts | 46° |
| 2026-05-04 14:00 | 46.38313 | 6.52072 | 11224 ft | 300 kts | 20° |
| 2026-05-04 14:00 | 46.40281 | 6.52484 | 11032 ft | 278 kts | 349° |
| 2026-05-04 14:01 | 46.42033 | 6.51555 | 10621 ft | 263 kts | 320° |
| 2026-05-04 14:01 | 46.43363 | 6.49796 | 10118 ft | 259 kts | 310° |
| 2026-05-04 14:01 | 46.45544 | 6.45936 | 9216 ft | 239 kts | 280° |
| 2026-05-04 14:02 | 46.45558 | 6.43615 | 8698 ft | 229 kts | 249° |
| 2026-05-04 14:02 | 46.44752 | 6.41683 | 8175 ft | 224 kts | 223° |
| 2026-05-04 14:02 | 46.43654 | 6.40080 | 7648 ft | 225 kts | 223° |
| 2026-05-04 14:02 | 46.42551 | 6.38475 | 7174 ft | 224 kts | 223° |
| 2026-05-04 14:03 | 46.41455 | 6.36876 | 6717 ft | 223 kts | 223° |
| 2026-05-04 14:03 | 46.40363 | 6.35280 | 6260 ft | 222 kts | 223° |
| 2026-05-04 14:03 | 46.39276 | 6.33689 | 5770 ft | 222 kts | 223° |
| 2026-05-04 14:03 | 46.38194 | 6.32105 | 5290 ft | 221 kts | 224° |
| 2026-05-04 14:04 | 46.36049 | 6.28944 | 4468 ft | 214 kts | 225° |
| 2026-05-04 14:04 | 46.35028 | 6.27433 | 4246 ft | 209 kts | 225° |
| 2026-05-04 14:04 | 46.34017 | 6.25939 | 3981 ft | 207 kts | 225° |
| 2026-05-04 14:05 | 46.32054 | 6.23041 | 3462 ft | 193 kts | 225° |
| 2026-05-04 14:05 | 46.31143 | 6.21697 | 3201 ft | 183 kts | 225° |
| 2026-05-04 14:05 | 46.30278 | 6.20421 | 2949 ft | 172 kts | 226° |
| 2026-05-04 14:06 | 46.29470 | 6.19232 | 2717 ft | 159 kts | 226° |
| 2026-05-04 14:06 | 46.28740 | 6.18156 | 2484 ft | 142 kts | 227° |
| 2026-05-04 14:06 | 46.28075 | 6.17177 | 2285 ft | 133 kts | 228° |
| 2026-05-04 14:06 | 46.27431 | 6.16229 | 2104 ft | 132 kts | 227° |
| 2026-05-04 14:07 | 46.26783 | 6.15274 | 1930 ft | 133 kts | 228° |
| 2026-05-04 14:07 | 46.26135 | 6.14325 | 1728 ft | 133 kts | 228° |
| 2026-05-04 14:07 | 46.25487 | 6.13365 | 1521 ft | 134 kts | 228° |
| 2026-05-04 14:07 | 46.24833 | 6.12410 | 1384 ft | 132 kts | 228° |
| 2026-05-04 14:08 | 46.24282 | 6.11592 | 1373 ft | 91 kts | 225° |
| 2026-05-04 14:08 | 46.23962 | 6.11124 | 1379 ft | 26 kts | 225° |
| 2026-05-04 14:08 | 46.23875 | 6.11062 | 1378 ft | 11 kts | 186° |
| 2026-05-04 14:08 | 46.23807 | 6.11076 | 1380 ft | 6 kts | 169° |
| 2026-05-04 14:09 | 46.23788 | 6.11081 | 1378 ft | 0 kts | 170° |
| 2026-05-04 14:10 | 46.23785 | 6.11081 | 1379 ft | 2 kts | 170° |
| 2026-05-04 14:10 | 46.23757 | 6.11088 | 1383 ft | 5 kts | 171° |
| 2026-05-04 14:10 | 46.23724 | 6.11087 | 1386 ft | 4 kts | 192° |
| 2026-05-04 14:11 | 46.23683 | 6.11049 | 1386 ft | 8 kts | 223° |
| 2026-05-04 14:11 | 46.23598 | 6.10924 | 1390 ft | 10 kts | 226° |
| 2026-05-04 14:11 | 46.23550 | 6.10852 | 1389 ft | 10 kts | 225° |
| 2026-05-04 14:12 | 46.23498 | 6.10776 | 1388 ft | 11 kts | 225° |
| 2026-05-04 14:12 | 46.23443 | 6.10695 | 1397 ft | 12 kts | 227° |
| 2026-05-04 14:12 | 46.23309 | 6.10511 | 1398 ft | 9 kts | 218° |
| 2026-05-04 14:13 | 46.23262 | 6.10552 | 1393 ft | 8 kts | 135° |
| 2026-05-04 14:13 | 46.23220 | 6.10611 | 1393 ft | 9 kts | 136° |
| 2026-05-04 14:13 | 46.23179 | 6.10663 | 1397 ft | 7 kts | 155° |
| 2026-05-04 14:13 | 46.23147 | 6.10633 | 1399 ft | 6 kts | 227° |
| 2026-05-04 14:14 | 46.23119 | 6.10589 | 1397 ft | 5 kts | 226° |
| 2026-05-04 14:14 | 46.23093 | 6.10564 | 1395 ft | 1 kts | 181° |
| 2026-05-04 14:14 | 46.23081 | 6.10574 | 1393 ft | 4 kts | 145° |
| 2026-05-04 14:15 | 46.23053 | 6.10616 | 1396 ft | 0 kts | 135° |